sensor_id;sensor_type;location;lat;lon;timestamp;P1;durP1;ratioP1;P2;durP2;ratioP2
50363;SDS011;36272;59.400;17.982;2022-10-26T00:04:56;3.47;;;2.58;;
50363;SDS011;36272;59.400;17.982;2022-10-26T00:09:57;2.60;;;2.10;;
50363;SDS011;36272;59.400;17.982;2022-10-26T00:14:59;3.35;;;2.20;;
50363;SDS011;36272;59.400;17.982;2022-10-26T00:20:01;5.07;;;2.10;;
50363;SDS011;36272;59.400;17.982;2022-10-26T00:25:02;1.90;;;1.50;;
50363;SDS011;36272;59.400;17.982;2022-10-26T00:30:05;2.38;;;1.35;;
50363;SDS011;36272;59.400;17.982;2022-10-26T00:35:12;2.00;;;1.10;;
50363;SDS011;36272;59.400;17.982;2022-10-26T00:40:14;2.70;;;1.00;;
50363;SDS011;36272;59.400;17.982;2022-10-26T00:45:23;1.73;;;0.77;;
50363;SDS011;36272;59.400;17.982;2022-10-26T00:50:34;0.55;;;0.55;;
50363;SDS011;36272;59.400;17.982;2022-10-26T00:55:40;4.63;;;0.80;;
50363;SDS011;36272;59.400;17.982;2022-10-26T01:00:46;1.13;;;0.95;;
50363;SDS011;36272;59.400;17.982;2022-10-26T01:05:48;2.33;;;1.00;;
50363;SDS011;36272;59.400;17.982;2022-10-26T01:10:50;1.60;;;1.17;;
50363;SDS011;36272;59.400;17.982;2022-10-26T01:32:15;2.28;;;1.27;;
50363;SDS011;36272;59.400;17.982;2022-10-26T01:37:27;1.98;;;1.05;;
50363;SDS011;36272;59.400;17.982;2022-10-26T01:42:35;2.25;;;0.90;;
50363;SDS011;36272;59.400;17.982;2022-10-26T01:47:43;6.50;;;1.08;;
50363;SDS011;36272;59.400;17.982;2022-10-26T01:52:48;1.02;;;0.68;;
50363;SDS011;36272;59.400;17.982;2022-10-26T01:57:50;1.92;;;0.90;;
50363;SDS011;36272;59.400;17.982;2022-10-26T02:19:21;0.68;;;0.60;;
50363;SDS011;36272;59.400;17.982;2022-10-26T02:24:30;1.23;;;0.60;;
50363;SDS011;36272;59.400;17.982;2022-10-26T02:29:36;1.95;;;0.82;;
50363;SDS011;36272;59.400;17.982;2022-10-26T02:34:39;0.95;;;0.60;;
50363;SDS011;36272;59.400;17.982;2022-10-26T02:39:44;2.23;;;1.07;;
50363;SDS011;36272;59.400;17.982;2022-10-26T02:44:49;1.50;;;1.20;;
50363;SDS011;36272;59.400;17.982;2022-10-26T02:49:54;2.97;;;1.60;;
50363;SDS011;36272;59.400;17.982;2022-10-26T02:55:02;1.50;;;1.30;;
50363;SDS011;36272;59.400;17.982;2022-10-26T03:00:08;2.72;;;1.80;;
50363;SDS011;36272;59.400;17.982;2022-10-26T03:05:12;6.07;;;2.10;;
50363;SDS011;36272;59.400;17.982;2022-10-26T03:10:20;2.35;;;1.77;;
50363;SDS011;36272;59.400;17.982;2022-10-26T03:15:23;3.92;;;2.10;;
50363;SDS011;36272;59.400;17.982;2022-10-26T03:20:24;4.75;;;2.00;;
50363;SDS011;36272;59.400;17.982;2022-10-26T03:25:26;3.95;;;1.80;;
50363;SDS011;36272;59.400;17.982;2022-10-26T03:30:28;4.53;;;2.00;;
50363;SDS011;36272;59.400;17.982;2022-10-26T03:35:31;4.32;;;1.80;;
50363;SDS011;36272;59.400;17.982;2022-10-26T03:40:32;2.25;;;1.70;;
50363;SDS011;36272;59.400;17.982;2022-10-26T03:45:36;1.80;;;1.52;;
50363;SDS011;36272;59.400;17.982;2022-10-26T03:50:37;2.33;;;1.30;;
50363;SDS011;36272;59.400;17.982;2022-10-26T03:55:42;5.80;;;1.50;;
50363;SDS011;36272;59.400;17.982;2022-10-26T04:00:44;2.28;;;1.40;;
50363;SDS011;36272;59.400;17.982;2022-10-26T04:05:47;1.02;;;0.90;;
50363;SDS011;36272;59.400;17.982;2022-10-26T04:10:48;2.58;;;1.08;;
50363;SDS011;36272;59.400;17.982;2022-10-26T04:15:50;2.05;;;1.38;;
50363;SDS011;36272;59.400;17.982;2022-10-26T04:20:52;3.00;;;1.00;;
50363;SDS011;36272;59.400;17.982;2022-10-26T04:25:53;4.70;;;1.20;;
50363;SDS011;36272;59.400;17.982;2022-10-26T04:30:55;1.13;;;1.00;;
50363;SDS011;36272;59.400;17.982;2022-10-26T04:35:59;5.32;;;1.27;;
50363;SDS011;36272;59.400;17.982;2022-10-26T04:41:01;2.10;;;1.43;;
50363;SDS011;36272;59.400;17.982;2022-10-26T04:46:03;2.15;;;1.80;;
50363;SDS011;36272;59.400;17.982;2022-10-26T04:51:05;3.60;;;2.03;;
50363;SDS011;36272;59.400;17.982;2022-10-26T04:56:07;6.55;;;2.30;;
50363;SDS011;36272;59.400;17.982;2022-10-26T05:01:09;8.52;;;2.53;;
50363;SDS011;36272;59.400;17.982;2022-10-26T05:06:10;5.63;;;2.55;;
50363;SDS011;36272;59.400;17.982;2022-10-26T05:11:12;5.40;;;2.35;;
50363;SDS011;36272;59.400;17.982;2022-10-26T05:16:14;2.63;;;1.98;;
50363;SDS011;36272;59.400;17.982;2022-10-26T05:21:16;7.75;;;2.25;;
50363;SDS011;36272;59.400;17.982;2022-10-26T05:26:20;6.03;;;2.00;;
50363;SDS011;36272;59.400;17.982;2022-10-26T05:31:22;5.57;;;2.00;;
50363;SDS011;36272;59.400;17.982;2022-10-26T05:36:24;3.30;;;1.90;;
50363;SDS011;36272;59.400;17.982;2022-10-26T05:41:26;4.03;;;1.55;;
50363;SDS011;36272;59.400;17.982;2022-10-26T05:46:29;4.40;;;1.75;;
50363;SDS011;36272;59.400;17.982;2022-10-26T05:51:34;3.15;;;1.90;;
50363;SDS011;36272;59.400;17.982;2022-10-26T05:56:37;2.92;;;2.10;;
50363;SDS011;36272;59.400;17.982;2022-10-26T06:06:57;6.95;;;2.10;;
50363;SDS011;36272;59.400;17.982;2022-10-26T06:11:59;2.88;;;2.05;;
50363;SDS011;36272;59.400;17.982;2022-10-26T06:28:05;5.22;;;2.53;;
50363;SDS011;36272;59.400;17.982;2022-10-26T06:33:27;4.93;;;2.40;;
50363;SDS011;36272;59.400;17.982;2022-10-26T06:38:29;3.15;;;2.35;;
50363;SDS011;36272;59.400;17.982;2022-10-26T06:43:34;4.47;;;2.50;;
50363;SDS011;36272;59.400;17.982;2022-10-26T06:54:15;3.75;;;1.92;;
50363;SDS011;36272;59.400;17.982;2022-10-26T06:59:39;2.35;;;1.80;;
50363;SDS011;36272;59.400;17.982;2022-10-26T07:04:49;5.15;;;2.53;;
50363;SDS011;36272;59.400;17.982;2022-10-26T07:09:51;3.63;;;2.00;;
50363;SDS011;36272;59.400;17.982;2022-10-26T07:14:53;2.53;;;2.05;;
50363;SDS011;36272;59.400;17.982;2022-10-26T07:19:54;3.67;;;1.70;;
50363;SDS011;36272;59.400;17.982;2022-10-26T07:24:57;4.43;;;2.10;;
50363;SDS011;36272;59.400;17.982;2022-10-26T07:29:58;2.53;;;1.75;;
50363;SDS011;36272;59.400;17.982;2022-10-26T07:35:00;3.28;;;1.92;;
50363;SDS011;36272;59.400;17.982;2022-10-26T07:40:02;2.92;;;2.10;;
50363;SDS011;36272;59.400;17.982;2022-10-26T07:45:04;4.10;;;1.95;;
50363;SDS011;36272;59.400;17.982;2022-10-26T07:50:07;5.47;;;2.20;;
50363;SDS011;36272;59.400;17.982;2022-10-26T07:55:09;3.67;;;2.50;;
50363;SDS011;36272;59.400;17.982;2022-10-26T08:00:12;3.70;;;2.70;;
50363;SDS011;36272;59.400;17.982;2022-10-26T08:05:14;5.97;;;2.40;;
50363;SDS011;36272;59.400;17.982;2022-10-26T08:10:16;4.88;;;2.10;;
50363;SDS011;36272;59.400;17.982;2022-10-26T08:15:18;4.68;;;2.67;;
50363;SDS011;36272;59.400;17.982;2022-10-26T08:20:19;2.78;;;2.20;;
50363;SDS011;36272;59.400;17.982;2022-10-26T08:25:21;5.75;;;2.15;;
50363;SDS011;36272;59.400;17.982;2022-10-26T08:30:23;3.35;;;1.95;;
50363;SDS011;36272;59.400;17.982;2022-10-26T08:35:24;9.07;;;2.35;;
50363;SDS011;36272;59.400;17.982;2022-10-26T08:40:27;6.28;;;2.22;;
50363;SDS011;36272;59.400;17.982;2022-10-26T08:45:34;3.38;;;1.80;;
50363;SDS011;36272;59.400;17.982;2022-10-26T08:50:44;3.20;;;1.50;;
50363;SDS011;36272;59.400;17.982;2022-10-26T08:56:03;5.47;;;1.88;;
50363;SDS011;36272;59.400;17.982;2022-10-26T09:01:11;1.60;;;1.48;;
50363;SDS011;36272;59.400;17.982;2022-10-26T09:21:53;1.90;;;1.40;;
50363;SDS011;36272;59.400;17.982;2022-10-26T09:27:27;2.95;;;1.73;;
50363;SDS011;36272;59.400;17.982;2022-10-26T09:32:34;3.53;;;1.90;;
50363;SDS011;36272;59.400;17.982;2022-10-26T09:37:39;3.70;;;1.20;;
50363;SDS011;36272;59.400;17.982;2022-10-26T09:53:41;2.70;;;0.50;;
50363;SDS011;36272;59.400;17.982;2022-10-26T09:58:51;0.68;;;0.50;;
50363;SDS011;36272;59.400;17.982;2022-10-26T10:09:24;4.95;;;1.50;;
50363;SDS011;36272;59.400;17.982;2022-10-26T10:14:32;2.08;;;0.60;;
50363;SDS011;36272;59.400;17.982;2022-10-26T10:19:54;1.88;;;0.65;;
50363;SDS011;36272;59.400;17.982;2022-10-26T10:25:21;2.65;;;0.77;;
50363;SDS011;36272;59.400;17.982;2022-10-26T10:30:28;1.00;;;0.60;;
50363;SDS011;36272;59.400;17.982;2022-10-26T10:35:32;0.93;;;0.80;;
50363;SDS011;36272;59.400;17.982;2022-10-26T10:40:39;1.70;;;1.17;;
50363;SDS011;36272;59.400;17.982;2022-10-26T10:45:45;1.48;;;0.77;;
50363;SDS011;36272;59.400;17.982;2022-10-26T10:56:34;0.88;;;0.75;;
50363;SDS011;36272;59.400;17.982;2022-10-26T11:01:37;3.20;;;0.65;;
50363;SDS011;36272;59.400;17.982;2022-10-26T11:06:40;0.82;;;0.70;;
50363;SDS011;36272;59.400;17.982;2022-10-26T11:11:54;1.60;;;1.00;;
50363;SDS011;36272;59.400;17.982;2022-10-26T11:17:24;2.72;;;0.80;;
50363;SDS011;36272;59.400;17.982;2022-10-26T11:22:36;1.90;;;0.70;;
50363;SDS011;36272;59.400;17.982;2022-10-26T11:33:41;1.13;;;1.00;;
50363;SDS011;36272;59.400;17.982;2022-10-26T11:38:59;5.28;;;1.50;;
50363;SDS011;36272;59.400;17.982;2022-10-26T11:54:36;3.50;;;2.65;;
50363;SDS011;36272;59.400;17.982;2022-10-26T12:15:40;3.35;;;2.72;;
50363;SDS011;36272;59.400;17.982;2022-10-26T12:21:03;4.30;;;2.33;;
50363;SDS011;36272;59.400;17.982;2022-10-26T12:26:54;4.87;;;2.03;;
50363;SDS011;36272;59.400;17.982;2022-10-26T12:37:08;3.05;;;1.70;;
50363;SDS011;36272;59.400;17.982;2022-10-26T12:52:44;3.95;;;2.40;;
50363;SDS011;36272;59.400;17.982;2022-10-26T13:03:53;5.03;;;2.53;;
50363;SDS011;36272;59.400;17.982;2022-10-26T13:08:57;3.17;;;2.30;;
50363;SDS011;36272;59.400;17.982;2022-10-26T13:24:42;7.65;;;3.13;;
50363;SDS011;36272;59.400;17.982;2022-10-26T13:35:12;8.07;;;3.60;;
50363;SDS011;36272;59.400;17.982;2022-10-26T13:45:26;8.32;;;3.50;;
50363;SDS011;36272;59.400;17.982;2022-10-26T13:50:39;8.98;;;3.45;;
50363;SDS011;36272;59.400;17.982;2022-10-26T13:55:51;7.85;;;3.80;;
50363;SDS011;36272;59.400;17.982;2022-10-26T14:01:00;8.38;;;3.78;;
50363;SDS011;36272;59.400;17.982;2022-10-26T14:06:25;7.95;;;4.32;;
50363;SDS011;36272;59.400;17.982;2022-10-26T14:11:57;5.90;;;3.78;;
50363;SDS011;36272;59.400;17.982;2022-10-26T14:17:06;5.53;;;3.90;;
50363;SDS011;36272;59.400;17.982;2022-10-26T14:22:20;5.13;;;3.70;;
50363;SDS011;36272;59.400;17.982;2022-10-26T14:27:29;4.05;;;2.95;;
50363;SDS011;36272;59.400;17.982;2022-10-26T14:32:32;5.78;;;3.03;;
50363;SDS011;36272;59.400;17.982;2022-10-26T14:37:37;4.50;;;3.00;;
50363;SDS011;36272;59.400;17.982;2022-10-26T14:42:40;4.95;;;3.33;;
50363;SDS011;36272;59.400;17.982;2022-10-26T14:47:47;6.68;;;3.58;;
50363;SDS011;36272;59.400;17.982;2022-10-26T14:52:51;6.05;;;3.25;;
50363;SDS011;36272;59.400;17.982;2022-10-26T14:58:12;7.32;;;2.95;;
50363;SDS011;36272;59.400;17.982;2022-10-26T15:03:18;4.88;;;3.17;;
50363;SDS011;36272;59.400;17.982;2022-10-26T15:08:39;4.40;;;3.10;;
50363;SDS011;36272;59.400;17.982;2022-10-26T15:13:42;4.93;;;2.30;;
50363;SDS011;36272;59.400;17.982;2022-10-26T15:18:57;3.28;;;2.20;;
50363;SDS011;36272;59.400;17.982;2022-10-26T15:29:40;4.47;;;2.30;;
50363;SDS011;36272;59.400;17.982;2022-10-26T15:35:27;3.20;;;2.20;;
50363;SDS011;36272;59.400;17.982;2022-10-26T15:40:11;3.70;;;2.15;;
50363;SDS011;36272;59.400;17.982;2022-10-26T15:50:26;2.33;;;2.00;;
50363;SDS011;36272;59.400;17.982;2022-10-26T15:55:29;2.30;;;2.10;;
50363;SDS011;36272;59.400;17.982;2022-10-26T16:00:31;2.13;;;1.77;;
50363;SDS011;36272;59.400;17.982;2022-10-26T16:05:32;2.08;;;1.70;;
50363;SDS011;36272;59.400;17.982;2022-10-26T16:10:34;6.10;;;1.58;;
50363;SDS011;36272;59.400;17.982;2022-10-26T16:15:35;6.13;;;2.10;;
50363;SDS011;36272;59.400;17.982;2022-10-26T16:20:37;4.13;;;2.20;;
50363;SDS011;36272;59.400;17.982;2022-10-26T16:25:43;4.05;;;2.60;;
50363;SDS011;36272;59.400;17.982;2022-10-26T16:30:46;2.45;;;2.15;;
50363;SDS011;36272;59.400;17.982;2022-10-26T16:35:53;2.88;;;2.58;;
50363;SDS011;36272;59.400;17.982;2022-10-26T16:41:03;4.65;;;2.70;;
50363;SDS011;36272;59.400;17.982;2022-10-26T16:46:10;3.13;;;2.53;;
50363;SDS011;36272;59.400;17.982;2022-10-26T16:51:15;3.50;;;2.60;;
50363;SDS011;36272;59.400;17.982;2022-10-26T16:56:19;5.43;;;2.70;;
50363;SDS011;36272;59.400;17.982;2022-10-26T17:01:27;3.95;;;2.90;;
50363;SDS011;36272;59.400;17.982;2022-10-26T17:06:29;2.58;;;2.38;;
50363;SDS011;36272;59.400;17.982;2022-10-26T17:11:31;3.45;;;2.65;;
50363;SDS011;36272;59.400;17.982;2022-10-26T17:16:32;4.50;;;2.70;;
50363;SDS011;36272;59.400;17.982;2022-10-26T17:21:37;2.78;;;2.47;;
50363;SDS011;36272;59.400;17.982;2022-10-26T17:26:40;5.60;;;2.90;;
50363;SDS011;36272;59.400;17.982;2022-10-26T17:31:43;7.20;;;2.80;;
50363;SDS011;36272;59.400;17.982;2022-10-26T17:36:44;6.47;;;3.08;;
50363;SDS011;36272;59.400;17.982;2022-10-26T17:41:46;4.93;;;3.13;;
50363;SDS011;36272;59.400;17.982;2022-10-26T17:46:48;4.35;;;2.85;;
50363;SDS011;36272;59.400;17.982;2022-10-26T17:51:49;4.15;;;2.63;;
50363;SDS011;36272;59.400;17.982;2022-10-26T17:56:51;4.20;;;2.85;;
50363;SDS011;36272;59.400;17.982;2022-10-26T18:01:53;6.30;;;2.70;;
50363;SDS011;36272;59.400;17.982;2022-10-26T18:06:54;4.32;;;2.58;;
50363;SDS011;36272;59.400;17.982;2022-10-26T18:11:56;8.13;;;3.10;;
50363;SDS011;36272;59.400;17.982;2022-10-26T18:16:57;4.50;;;3.15;;
50363;SDS011;36272;59.400;17.982;2022-10-26T18:22:04;5.78;;;3.58;;
50363;SDS011;36272;59.400;17.982;2022-10-26T18:27:09;4.55;;;3.60;;
50363;SDS011;36272;59.400;17.982;2022-10-26T18:32:10;6.22;;;3.88;;
50363;SDS011;36272;59.400;17.982;2022-10-26T18:37:12;4.63;;;3.67;;
50363;SDS011;36272;59.400;17.982;2022-10-26T18:42:14;9.48;;;3.65;;
50363;SDS011;36272;59.400;17.982;2022-10-26T18:47:18;6.07;;;3.80;;
50363;SDS011;36272;59.400;17.982;2022-10-26T18:52:20;5.78;;;4.00;;
50363;SDS011;36272;59.400;17.982;2022-10-26T18:57:23;4.57;;;3.45;;
50363;SDS011;36272;59.400;17.982;2022-10-26T19:02:27;6.97;;;3.90;;
50363;SDS011;36272;59.400;17.982;2022-10-26T19:07:28;6.45;;;3.80;;
50363;SDS011;36272;59.400;17.982;2022-10-26T19:12:30;7.20;;;4.10;;
50363;SDS011;36272;59.400;17.982;2022-10-26T19:17:41;6.38;;;4.22;;
50363;SDS011;36272;59.400;17.982;2022-10-26T19:23:19;7.03;;;3.95;;
50363;SDS011;36272;59.400;17.982;2022-10-26T19:28:23;6.10;;;3.70;;
50363;SDS011;36272;59.400;17.982;2022-10-26T19:33:25;7.95;;;3.60;;
50363;SDS011;36272;59.400;17.982;2022-10-26T19:38:30;6.80;;;3.80;;
50363;SDS011;36272;59.400;17.982;2022-10-26T19:43:35;4.97;;;3.63;;
50363;SDS011;36272;59.400;17.982;2022-10-26T19:48:41;5.55;;;3.65;;
50363;SDS011;36272;59.400;17.982;2022-10-26T19:59:19;6.07;;;3.42;;
50363;SDS011;36272;59.400;17.982;2022-10-26T20:09:52;4.05;;;3.15;;
50363;SDS011;36272;59.400;17.982;2022-10-26T20:14:54;6.35;;;3.42;;
50363;SDS011;36272;59.400;17.982;2022-10-26T20:19:56;9.40;;;3.33;;
50363;SDS011;36272;59.400;17.982;2022-10-26T20:25:00;5.25;;;3.17;;
50363;SDS011;36272;59.400;17.982;2022-10-26T20:35:37;4.80;;;3.15;;
50363;SDS011;36272;59.400;17.982;2022-10-26T20:40:46;6.93;;;3.42;;
50363;SDS011;36272;59.400;17.982;2022-10-26T20:45:57;7.28;;;3.40;;
50363;SDS011;36272;59.400;17.982;2022-10-26T20:51:06;4.05;;;2.80;;
50363;SDS011;36272;59.400;17.982;2022-10-26T20:56:19;4.72;;;2.80;;
50363;SDS011;36272;59.400;17.982;2022-10-26T21:01:25;3.85;;;2.63;;
50363;SDS011;36272;59.400;17.982;2022-10-26T21:06:31;6.32;;;2.90;;
50363;SDS011;36272;59.400;17.982;2022-10-26T21:11:40;4.40;;;2.92;;
50363;SDS011;36272;59.400;17.982;2022-10-26T21:16:41;4.05;;;2.83;;
50363;SDS011;36272;59.400;17.982;2022-10-26T21:21:43;4.88;;;3.30;;
50363;SDS011;36272;59.400;17.982;2022-10-26T21:26:45;4.05;;;3.58;;
50363;SDS011;36272;59.400;17.982;2022-10-26T21:31:46;3.38;;;2.95;;
50363;SDS011;36272;59.400;17.982;2022-10-26T21:36:48;4.13;;;2.97;;
50363;SDS011;36272;59.400;17.982;2022-10-26T21:41:50;5.75;;;3.90;;
50363;SDS011;36272;59.400;17.982;2022-10-26T21:46:51;5.80;;;3.72;;
50363;SDS011;36272;59.400;17.982;2022-10-26T21:51:53;7.40;;;3.60;;
50363;SDS011;36272;59.400;17.982;2022-10-26T21:56:55;4.45;;;3.72;;
50363;SDS011;36272;59.400;17.982;2022-10-26T22:01:56;4.35;;;3.63;;
50363;SDS011;36272;59.400;17.982;2022-10-26T22:06:58;4.65;;;3.88;;
50363;SDS011;36272;59.400;17.982;2022-10-26T22:12:00;4.70;;;3.78;;
50363;SDS011;36272;59.400;17.982;2022-10-26T22:17:04;6.22;;;2.85;;
50363;SDS011;36272;59.400;17.982;2022-10-26T22:22:05;4.18;;;3.20;;
50363;SDS011;36272;59.400;17.982;2022-10-26T22:27:07;3.33;;;2.58;;
50363;SDS011;36272;59.400;17.982;2022-10-26T22:32:08;3.90;;;3.20;;
50363;SDS011;36272;59.400;17.982;2022-10-26T22:37:10;3.50;;;2.92;;
50363;SDS011;36272;59.400;17.982;2022-10-26T22:42:12;4.55;;;3.20;;
50363;SDS011;36272;59.400;17.982;2022-10-26T22:47:14;4.68;;;3.17;;
50363;SDS011;36272;59.400;17.982;2022-10-26T22:52:18;3.97;;;2.80;;
50363;SDS011;36272;59.400;17.982;2022-10-26T22:57:22;4.63;;;2.83;;
50363;SDS011;36272;59.400;17.982;2022-10-26T23:02:24;3.05;;;2.65;;
50363;SDS011;36272;59.400;17.982;2022-10-26T23:07:25;3.42;;;2.72;;
50363;SDS011;36272;59.400;17.982;2022-10-26T23:12:34;3.28;;;2.55;;
50363;SDS011;36272;59.400;17.982;2022-10-26T23:17:35;7.68;;;3.10;;
50363;SDS011;36272;59.400;17.982;2022-10-26T23:22:37;3.50;;;2.60;;
50363;SDS011;36272;59.400;17.982;2022-10-26T23:27:39;3.97;;;2.70;;
50363;SDS011;36272;59.400;17.982;2022-10-26T23:32:45;4.47;;;2.55;;
50363;SDS011;36272;59.400;17.982;2022-10-26T23:37:47;3.92;;;2.67;;
50363;SDS011;36272;59.400;17.982;2022-10-26T23:42:49;6.63;;;2.72;;
50363;SDS011;36272;59.400;17.982;2022-10-26T23:47:50;4.70;;;3.42;;
50363;SDS011;36272;59.400;17.982;2022-10-26T23:52:52;9.88;;;3.00;;
50363;SDS011;36272;59.400;17.982;2022-10-26T23:57:53;4.78;;;3.42;;
